Terminal Aerodrome Forecast
Issued by NWS Miami, FL

Home | Current Version | Previous Version | Text Only | Print | Product List | Glossary On
Versions: 1 2 3 4 5 6 7 8 9 10 11 12 13 14 15 16 17 18 19 20 21 22 23 24 25 26 27 28
000
FTUS42 KMFL 162027 AAB
TAFAPF
TAF AMD
KAPF 162027Z 1620/1718 30010KT P6SM VCTS SCT035CB SCT250
      TEMPO 1620/1623 VRB25G35KT 2SM TSRA BKN030CB
     FM162300 26008KT P6SM SCT035 BKN250
     FM170000 00000KT P6SM FEW030 SCT250
     FM171500 10004KT P6SM SCT040 SCT250=

USA.gov is the U.S. government's official web portal to all federal, state and local government web resources and services.